createdAt,value
2018-08-31T00:03:32.865Z,6.03
2018-08-31T00:08:02.275Z,7.27
2018-08-31T00:12:35.755Z,9.23
2018-08-31T00:16:38.556Z,6.60
2018-08-31T00:20:41.170Z,6.13
2018-08-31T00:25:57.549Z,5.90
2018-08-31T00:30:11.324Z,6.63
2018-08-31T00:34:41.516Z,6.17
2018-08-31T00:38:55.266Z,5.93
2018-08-31T00:43:38.068Z,6.53
2018-08-31T00:47:40.350Z,5.57
2018-08-31T00:51:43.034Z,4.93
2018-08-31T00:55:45.170Z,6.20
2018-08-31T00:59:47.366Z,6.30
2018-08-31T01:03:49.517Z,7.57
2018-08-31T01:07:52.781Z,6.60
2018-08-31T01:11:55.016Z,7.57
2018-08-31T01:15:57.383Z,7.73
2018-08-31T01:19:59.546Z,5.73
2018-08-31T01:24:01.676Z,6.33
2018-08-31T01:28:03.854Z,5.10
2018-08-31T01:32:06.899Z,10.17
2018-08-31T01:36:09.654Z,5.77
2018-08-31T01:40:11.838Z,4.53
2018-08-31T01:44:14.938Z,5.10
2018-08-31T01:48:17.666Z,6.77
2018-08-31T01:52:19.824Z,6.23
2018-08-31T01:56:22.015Z,5.57
2018-08-31T02:00:24.667Z,8.87
2018-08-31T02:04:27.500Z,7.00
2018-08-31T02:08:29.670Z,7.53
2018-08-31T02:12:31.833Z,5.90
2018-08-31T02:16:34.031Z,5.63
2018-08-31T02:20:36.174Z,5.57
2018-08-31T02:24:38.328Z,7.90
2018-08-31T02:28:40.459Z,6.63
2018-08-31T02:32:42.594Z,7.63
2018-08-31T02:36:44.743Z,6.90
2018-08-31T02:40:47.248Z,6.10
2018-08-31T02:44:49.415Z,6.17
2018-08-31T02:48:52.299Z,12.57
2018-08-31T02:52:55.416Z,6.70
2018-08-31T02:56:57.582Z,9.63
2018-08-31T03:00:59.734Z,8.70
2018-08-31T03:05:01.886Z,6.07
2018-08-31T03:09:05.142Z,8.20
2018-08-31T03:13:07.287Z,8.47
2018-08-31T03:17:09.475Z,6.63
2018-08-31T03:21:11.673Z,8.87
2018-08-31T03:25:13.788Z,8.37
2018-08-31T03:29:16.889Z,8.13
2018-08-31T03:33:19.588Z,8.57
2018-08-31T03:37:21.860Z,10.50
2018-08-31T03:41:24.002Z,9.53
2018-08-31T03:45:26.541Z,7.70
2018-08-31T03:49:28.746Z,10.13
2018-08-31T03:53:31.425Z,6.57
2018-08-31T03:57:33.749Z,8.47
2018-08-31T04:01:35.927Z,9.00
2018-08-31T04:05:38.066Z,6.90
2018-08-31T04:09:40.762Z,8.00
2018-08-31T04:13:42.967Z,8.30
2018-08-31T04:17:45.108Z,7.67
2018-08-31T04:21:47.482Z,6.37
2018-08-31T04:25:49.640Z,9.60
2018-08-31T04:29:52.331Z,5.87
2018-08-31T04:33:54.671Z,7.27
2018-08-31T04:37:56.863Z,6.23
2018-08-31T04:41:59.060Z,10.00
2018-08-31T04:46:01.217Z,8.83
2018-08-31T04:50:03.611Z,10.63
2018-08-31T04:54:06.020Z,7.20
2018-08-31T04:58:08.145Z,8.07
2018-08-31T05:02:10.359Z,6.07
2018-08-31T05:06:12.549Z,8.30
2018-08-31T05:10:14.686Z,9.77
2018-08-31T05:14:16.822Z,14.13
2018-08-31T05:18:19.027Z,9.07
2018-08-31T05:22:21.244Z,12.00
2018-08-31T05:26:24.119Z,9.63
2018-08-31T05:30:26.295Z,10.13
2018-08-31T05:34:28.484Z,7.10
2018-08-31T05:38:30.890Z,8.77
2018-08-31T05:42:33.155Z,6.23
2018-08-31T05:46:35.318Z,6.93
2018-08-31T05:50:37.535Z,10.03
2018-08-31T05:54:39.704Z,14.00
2018-08-31T05:58:42.364Z,10.07
2018-08-31T06:02:44.946Z,8.77
2018-08-31T06:06:47.105Z,13.10
2018-08-31T06:10:49.668Z,8.70
2018-08-31T06:14:51.818Z,9.40
2018-08-31T06:18:53.966Z,8.57
2018-08-31T06:22:56.104Z,17.73
2018-08-31T06:26:58.333Z,10.83
2018-08-31T06:31:00.463Z,11.97
2018-08-31T06:35:02.640Z,11.43
2018-08-31T06:39:06.019Z,8.53
2018-08-31T06:43:08.160Z,11.73
2018-08-31T06:47:10.293Z,16.80
2018-08-31T06:51:12.848Z,14.47
2018-08-31T06:55:15.146Z,14.97
2018-08-31T06:59:17.467Z,10.20
2018-08-31T07:03:19.654Z,14.87
2018-08-31T07:07:21.794Z,15.00
2018-08-31T07:11:23.934Z,7.90
2018-08-31T07:15:26.094Z,14.40
2018-08-31T07:19:28.284Z,11.53
2018-08-31T07:23:30.403Z,12.13
2018-08-31T07:27:42.216Z,11.30
2018-08-31T07:31:44.391Z,11.57
2018-08-31T07:35:46.631Z,16.87
2018-08-31T07:39:48.775Z,15.53
2018-08-31T07:43:51.073Z,17.90
2018-08-31T07:47:53.326Z,11.77
2018-08-31T07:51:55.404Z,12.10
2018-08-31T07:55:57.555Z,8.33
2018-08-31T07:59:59.734Z,14.17
2018-08-31T08:04:01.861Z,14.40
2018-08-31T08:08:04.050Z,11.57
2018-08-31T08:12:06.223Z,6.73
2018-08-31T08:16:08.394Z,8.80
2018-08-31T08:20:10.528Z,15.47
2018-08-31T08:24:12.694Z,18.63
2018-08-31T08:28:14.842Z,13.83
2018-08-31T08:32:17.020Z,8.07
2018-08-31T08:36:19.326Z,14.27
2018-08-31T08:40:21.584Z,9.70
2018-08-31T08:44:23.798Z,10.00
2018-08-31T08:48:26.315Z,11.00
2018-08-31T08:52:28.711Z,9.83
2018-08-31T08:56:30.872Z,13.83
2018-08-31T09:00:33.057Z,15.40
2018-08-31T09:04:35.223Z,11.30
2018-08-31T09:08:37.351Z,7.77
2018-08-31T09:12:39.529Z,15.10
2018-08-31T09:16:41.738Z,12.70
2018-08-31T09:20:43.922Z,9.40
2018-08-31T09:24:46.122Z,8.90
2018-08-31T09:28:48.562Z,10.90
2018-08-31T09:32:50.810Z,8.87
2018-08-31T09:36:52.975Z,7.90
2018-08-31T09:40:55.293Z,13.20
2018-08-31T09:44:57.639Z,8.23
2018-08-31T09:49:00.162Z,10.87
2018-08-31T09:53:02.631Z,7.87
2018-08-31T09:57:04.871Z,11.00
2018-08-31T10:01:12.647Z,6.53
2018-08-31T10:05:15.357Z,8.80
2018-08-31T10:09:17.530Z,7.23
2018-08-31T10:13:19.746Z,8.10
2018-08-31T10:17:21.851Z,10.43
2018-08-31T10:21:24.200Z,6.40
2018-08-31T10:25:26.374Z,8.90
2018-08-31T10:30:58.151Z,7.53
2018-08-31T10:35:00.329Z,8.23
2018-08-31T10:39:03.331Z,8.37
2018-08-31T10:43:05.637Z,4.67
2018-08-31T10:47:07.860Z,4.93
2018-08-31T10:51:10.643Z,5.97
2018-08-31T10:55:12.829Z,5.47
2018-08-31T10:59:15.008Z,6.17
2018-08-31T11:03:17.289Z,9.57
2018-08-31T11:07:19.455Z,6.40
2018-08-31T11:11:21.590Z,6.27
2018-08-31T11:15:23.874Z,3.93
2018-08-31T11:19:26.478Z,3.83
2018-08-31T11:23:28.679Z,4.97
2018-08-31T11:27:30.875Z,5.33
2018-08-31T11:31:33.076Z,8.13
2018-08-31T11:35:35.326Z,4.47
2018-08-31T11:39:37.598Z,4.53
2018-08-31T11:43:39.740Z,4.17
2018-08-31T11:47:41.940Z,4.03
2018-08-31T11:51:44.273Z,10.27
2018-08-31T11:55:46.483Z,6.60
2018-08-31T11:59:48.721Z,4.10
2018-08-31T12:03:50.943Z,4.57
2018-08-31T12:07:53.220Z,5.30
2018-08-31T12:11:55.373Z,5.43
2018-08-31T12:15:57.546Z,5.80
2018-08-31T12:19:59.758Z,5.13
2018-08-31T12:24:01.983Z,5.43
2018-08-31T12:28:04.192Z,8.27
2018-08-31T12:32:07.458Z,4.47
2018-08-31T12:36:09.730Z,7.33
2018-08-31T12:40:12.027Z,5.53
2018-08-31T12:44:14.315Z,4.70
2018-08-31T12:48:16.466Z,8.37
2018-08-31T12:52:18.759Z,3.93
2018-08-31T12:56:21.063Z,10.60
2018-08-31T13:00:23.303Z,7.57
2018-08-31T13:04:25.636Z,9.97
2018-08-31T13:08:27.836Z,6.57
2018-08-31T13:12:30.029Z,5.47
2018-08-31T13:16:32.223Z,5.13
2018-08-31T13:20:34.459Z,7.50
2018-08-31T13:24:36.747Z,5.77
2018-08-31T13:28:38.975Z,5.43
2018-08-31T13:32:41.226Z,7.63
2018-08-31T13:36:43.371Z,4.40
2018-08-31T13:40:45.663Z,5.13
2018-08-31T13:44:47.884Z,3.33
2018-08-31T13:48:50.691Z,3.67
2018-08-31T13:52:53.010Z,5.33
2018-08-31T13:56:55.201Z,5.57
2018-08-31T14:00:57.416Z,5.23
2018-08-31T14:04:59.803Z,4.03
2018-08-31T14:09:02.034Z,3.60
2018-08-31T14:13:04.227Z,7.00
2018-08-31T14:17:07.947Z,5.63
2018-08-31T14:21:10.785Z,5.60
2018-08-31T14:25:12.958Z,3.33
2018-08-31T14:29:15.568Z,5.13
2018-08-31T14:33:18.755Z,4.17
2018-08-31T14:37:21.010Z,6.27
2018-08-31T14:41:23.508Z,4.70
2018-08-31T14:45:25.691Z,4.07
2018-08-31T14:49:27.964Z,5.03
2018-08-31T14:53:30.218Z,5.50
2018-08-31T14:57:32.490Z,4.50
2018-08-31T15:01:34.628Z,7.93
2018-08-31T15:05:37.489Z,4.53
2018-08-31T15:09:40.204Z,9.37
2018-08-31T15:13:42.391Z,5.10
2018-08-31T15:17:44.632Z,6.50
2018-08-31T15:21:46.888Z,5.07
2018-08-31T15:25:49.280Z,7.27
2018-08-31T15:29:51.527Z,3.80
2018-08-31T15:33:53.749Z,6.70
2018-08-31T15:37:55.910Z,6.63
2018-08-31T15:41:58.211Z,4.10
2018-08-31T15:46:00.533Z,6.83
2018-08-31T15:50:02.853Z,5.00
2018-08-31T15:54:05.054Z,5.40
2018-08-31T15:58:07.262Z,4.57
2018-08-31T16:02:09.456Z,4.10
2018-08-31T16:06:11.748Z,2.47
2018-08-31T16:10:13.964Z,2.37
2018-08-31T16:14:16.182Z,3.67
2018-08-31T16:18:18.370Z,3.90
2018-08-31T16:22:20.568Z,10.03
2018-08-31T16:26:22.796Z,5.43
2018-08-31T16:30:25.037Z,5.13
2018-08-31T16:34:27.207Z,5.47
2018-08-31T16:38:29.443Z,6.20
2018-08-31T16:42:31.656Z,4.03
2018-08-31T16:46:33.919Z,4.00
2018-08-31T16:50:36.099Z,5.47
2018-08-31T16:54:38.300Z,6.73
2018-08-31T16:58:40.555Z,7.67
2018-08-31T17:02:43.495Z,7.50
2018-08-31T17:06:46.671Z,8.60
2018-08-31T17:10:49.197Z,5.83
2018-08-31T17:14:51.444Z,10.93
2018-08-31T17:18:53.630Z,14.33
2018-08-31T17:22:55.878Z,18.27
2018-08-31T17:27:03.895Z,8.03
2018-08-31T17:31:11.902Z,38.00
2018-08-31T17:35:19.988Z,66.87
2018-08-31T17:39:22.278Z,54.33
2018-08-31T17:43:24.527Z,17.57
2018-08-31T17:47:27.176Z,7.07
2018-08-31T17:51:29.479Z,5.00
2018-08-31T17:55:31.802Z,3.60
2018-08-31T17:59:33.999Z,7.00
2018-08-31T18:03:36.396Z,4.70
2018-08-31T18:07:38.606Z,4.47
2018-08-31T18:11:40.820Z,6.77
2018-08-31T18:15:43.053Z,5.03
2018-08-31T18:19:45.228Z,10.20
2018-08-31T18:23:47.403Z,7.13
2018-08-31T18:27:49.651Z,7.67
2018-08-31T18:31:54.186Z,4.03
2018-08-31T18:35:56.418Z,4.90
2018-08-31T18:39:58.678Z,6.13
2018-08-31T18:44:00.795Z,4.13
2018-08-31T18:48:03.166Z,4.10
2018-08-31T18:52:05.392Z,14.87
2018-08-31T18:56:07.799Z,4.03
2018-08-31T19:00:10.043Z,3.23
2018-08-31T19:04:12.229Z,6.90
2018-08-31T19:08:14.463Z,45.92
2018-08-31T19:12:16.728Z,19.53
2018-08-31T19:16:18.919Z,14.57
2018-08-31T19:20:21.092Z,5.13
2018-08-31T19:24:23.280Z,3.97
2018-08-31T19:28:25.453Z,7.50
2018-08-31T19:32:27.612Z,4.40
2018-08-31T19:36:29.854Z,3.87
2018-08-31T19:40:32.047Z,7.03
2018-08-31T19:44:34.292Z,6.33
2018-08-31T19:48:36.507Z,6.07
2018-08-31T19:52:38.743Z,3.53
2018-08-31T19:56:40.968Z,5.43
2018-08-31T20:00:43.203Z,10.93
2018-08-31T20:04:55.920Z,10.97
2018-08-31T20:08:58.105Z,6.83
2018-08-31T20:13:00.295Z,7.57
2018-08-31T20:17:03.054Z,6.93
2018-08-31T20:21:05.347Z,11.20
2018-08-31T20:25:07.686Z,6.97
2018-08-31T20:29:10.664Z,6.27
2018-08-31T20:33:12.925Z,6.07
2018-08-31T20:37:15.190Z,5.83
2018-08-31T20:41:17.376Z,4.20
2018-08-31T20:45:19.573Z,6.87
2018-08-31T20:49:21.730Z,6.17
2018-08-31T20:53:23.865Z,6.53
2018-08-31T20:57:27.110Z,6.47
2018-08-31T21:01:29.276Z,5.10
2018-08-31T21:05:31.447Z,4.77
2018-08-31T21:09:33.628Z,7.77
2018-08-31T21:13:35.799Z,4.37
2018-08-31T21:17:39.316Z,7.97
2018-08-31T21:21:43.490Z,6.00
2018-08-31T21:25:45.682Z,5.23
2018-08-31T21:29:47.887Z,4.70
2018-08-31T21:33:50.056Z,3.13
2018-08-31T21:37:52.531Z,4.10
2018-08-31T21:41:54.753Z,5.47
2018-08-31T21:45:56.962Z,2.90
2018-08-31T21:49:59.140Z,4.23
2018-08-31T21:54:01.350Z,5.53
2018-08-31T21:58:03.540Z,7.03
2018-08-31T22:02:05.785Z,5.10
2018-08-31T22:06:08.161Z,4.77
2018-08-31T22:10:10.361Z,4.73
2018-08-31T22:14:12.502Z,5.60
2018-08-31T22:18:14.687Z,6.57
2018-08-31T22:22:16.907Z,5.47
2018-08-31T22:26:19.095Z,5.83
2018-08-31T22:30:21.566Z,6.70
2018-08-31T22:34:23.827Z,5.60
2018-08-31T22:38:25.990Z,5.53
2018-08-31T22:42:28.227Z,4.17
2018-08-31T22:46:30.503Z,4.93
2018-08-31T22:50:32.630Z,6.63
2018-08-31T22:54:35.443Z,3.50
2018-08-31T22:58:37.651Z,5.47
2018-08-31T23:02:39.861Z,5.87
2018-08-31T23:06:42.073Z,4.67
2018-08-31T23:10:44.208Z,4.60
2018-08-31T23:14:46.398Z,6.97
2018-08-31T23:18:48.574Z,5.13
2018-08-31T23:22:54.344Z,3.73
2018-08-31T23:26:56.500Z,4.67
2018-08-31T23:30:58.666Z,4.20
2018-08-31T23:35:00.946Z,5.63
2018-08-31T23:39:04.270Z,7.20
2018-08-31T23:43:06.415Z,3.60
2018-08-31T23:47:09.015Z,4.40
2018-08-31T23:51:11.189Z,5.23
2018-08-31T23:55:13.391Z,4.47
2018-08-31T23:59:15.619Z,4.23
